Time;durP1;ratioP1;P1;durP2;ratioP2;P2;SDS_P1;SDS_P2;PMS_P1;PMS_P2;Temp;Humidity;BMP_temperature;BMP_pressure;BME280_temperature;BME280_humidity;BME280_pressure;Samples;Min_cycle;Max_cycle;Signal;HPM_P1;HPM_P2
2021/06/06 00:01:56;;;;;;;0.63;0.52;;;;;;;14.62;51.02;92969.06;6223769;22;20016;-93
2021/06/06 00:04:43;;;;;;;;;;;;;;;;;;;;;
2021/06/06 00:07:28;;;;;;;0.68;0.60;;;;;;;14.55;50.96;92959.72;6275836;22;20035;-93
2021/06/06 00:10:15;;;;;;;0.60;0.52;;;;;;;14.48;51.16;92958.53;6248619;22;20008;-92
2021/06/06 00:12:55;;;;;;;0.60;0.60;;;;;;;14.47;51.37;92954.34;6223775;22;20438;-93
2021/06/06 00:15:49;;;;;;;;;;;;;;;;;;;;;
2021/06/06 00:18:44;;;;;;;0.65;0.60;;;;;;;14.44;50.91;92952.31;6247856;22;20070;-93
2021/06/06 00:21:44;;;;;;;0.55;0.55;;;;;;;14.39;51.26;92947.94;6252596;22;20088;-93
2021/06/06 00:24:32;;;;;;;;;;;;;;;;;;;;;
2021/06/06 00:27:30;;;;;;;;;;;;;;;;;;;;;
2021/06/06 00:30:07;;;;;;;1.92;0.80;;;;;;;14.44;50.85;92945.19;6226583;22;20106;-92
2021/06/06 00:32:56;;;;;;;0.68;0.60;;;;;;;14.34;51.16;92935.66;6250593;22;20007;-92
2021/06/06 00:35:45;;;;;;;2.47;0.70;;;;;;;14.34;50.98;92938.31;6250161;22;20020;-93
2021/06/06 00:44:42;;;;;;;1.35;0.80;;;;;;;14.34;50.80;92945.41;6229481;22;20022;-92
2021/06/06 00:47:28;;;;;;;;;;;;;;;;;;;;;
2021/06/06 00:50:07;;;;;;;;;;;;;;;;;;;;;
2021/06/06 00:53:01;;;;;;;;;;;;;;;;;;;;;
2021/06/06 00:55:40;;;;;;;2.78;0.57;;;;;;;14.29;50.90;92933.13;6249944;22;20072;-92
2021/06/06 00:58:22;;;;;;;1.00;0.65;;;;;;;14.34;50.90;92940.94;6225480;22;20016;-94
2021/06/06 01:01:10;;;;;;;2.50;0.70;;;;;;;14.37;51.17;92950.09;6258978;22;20027;-93
2021/06/06 01:04:07;;;;;;;;;;;;;;;;;;;;;
2021/06/06 01:07:14;;;;;;;;;;;;;;;;;;;;;
2021/06/06 01:10:26;;;;;;;0.70;0.65;;;;;;;14.22;55.53;92939.88;6251852;22;20094;-91
2021/06/06 01:13:22;;;;;;;;;;;;;;;;;;;;;
2021/06/06 01:16:19;;;;;;;1.85;1.00;;;;;;;13.94;57.80;92932.06;6250062;22;20326;-92
2021/06/06 01:19:21;;;;;;;1.30;0.70;;;;;;;13.80;55.94;92915.50;6227186;22;20047;-91
2021/06/06 01:22:32;;;;;;;0.50;0.50;;;;;;;13.90;54.24;92937.13;6185448;22;20461;-93
2021/06/06 01:25:23;;;;;;;;;;;;;;;;;;;;;
2021/06/06 01:28:59;;;;;;;;;;;;;;;;;;;;;
2021/06/06 01:32:04;;;;;;;0.80;0.60;;;;;;;13.77;54.08;92919.50;6251432;22;20098;-92
2021/06/06 01:35:13;;;;;;;;;;;;;;;;;;;;;
2021/06/06 01:38:29;;;;;;;;;;;;;;;;;;;;;
2021/06/06 01:41:28;;;;;;;;;;;;;;;;;;;;;
2021/06/06 01:44:17;;;;;;;;;;;;;;;;;;;;;
2021/06/06 01:47:28;;;;;;;1.10;0.63;;;;;;;13.73;53.73;92900.91;6276221;22;20123;-93
2021/06/06 01:50:06;;;;;;;0.82;0.60;;;;;;;13.81;53.56;92907.31;6218184;22;20338;-91
2021/06/06 01:52:40;;;;;;;1.27;0.70;;;;;;;13.81;53.08;92899.44;6224299;22;20011;-93
2021/06/06 01:55:47;;;;;;;2.83;0.73;;;;;;;13.89;52.86;92897.94;6225268;22;20012;-92
2021/06/06 02:02:12;;;;;;;0.70;0.70;;;;;;;13.86;53.61;92909.84;6260924;22;20137;-92
2021/06/06 02:04:52;;;;;;;0.98;0.73;;;;;;;13.81;53.27;92896.78;6170365;22;20019;-93
2021/06/06 02:07:56;;;;;;;1.00;0.57;;;;;;;13.84;52.23;92890.94;6251883;22;20466;-93
2021/06/06 02:10:47;;;;;;;;;;;;;;;;;;;;;
2021/06/06 02:13:49;;;;;;;0.50;0.50;;;;;;;13.87;52.13;92879.03;6275244;22;20466;-93
2021/06/06 02:16:39;;;;;;;0.45;0.45;;;;;;;13.95;52.22;92894.91;6251968;22;20071;-92
2021/06/06 02:19:25;;;;;;;0.70;0.47;;;;;;;13.95;51.81;92887.00;6249953;22;20039;-92
2021/06/06 02:22:13;;;;;;;2.03;0.52;;;;;;;14.04;51.06;92881.03;6225252;22;20090;-93
2021/06/06 02:25:16;;;;;;;;;;;;;;;;;;;;;
2021/06/06 02:28:19;;;;;;;0.43;0.43;;;;;;;14.26;50.53;92881.06;6248437;22;20012;-94
2021/06/06 02:31:05;;;;;;;0.50;0.50;;;;;;;14.24;50.28;92877.94;6225700;22;20504;-91
2021/06/06 02:34:06;;;;;;;;;;;;;;;;;;;;;
2021/06/06 02:36:52;;;;;;;0.52;0.52;;;;;;;14.13;50.57;92861.59;6248990;22;20015;-93
2021/06/06 02:40:19;;;;;;;0.73;0.70;;;;;;;14.11;50.89;92863.75;6254734;22;20023;-93
2021/06/06 02:42:57;;;;;;;0.50;0.50;;;;;;;14.01;50.88;92858.72;6224671;22;20320;-92
2021/06/06 02:46:10;;;;;;;1.23;0.60;;;;;;;14.01;51.03;92852.69;6250905;22;20103;-94
2021/06/06 02:49:17;;;;;;;0.60;0.45;;;;;;;14.20;50.00;92849.88;6225002;22;20313;-92
2021/06/06 02:52:38;;;;;;;0.57;0.45;;;;;;;14.20;50.47;92870.94;6253203;22;20106;-93
2021/06/06 02:55:41;;;;;;;;;;;;;;;;;;;;;
2021/06/06 02:58:31;;;;;;;1.65;0.65;;;;;;;13.99;51.17;92868.00;6275508;22;20425;-92
2021/06/06 03:01:24;;;;;;;0.70;0.52;;;;;;;13.95;50.75;92859.91;6224007;22;20545;-93
2021/06/06 03:03:53;;;;;;;2.00;0.70;;;;;;;13.95;51.11;92859.91;6223436;22;20061;-92
2021/06/06 03:06:40;;;;;;;0.73;0.50;;;;;;;13.86;51.50;92859.84;6227590;22;20038;-94
2021/06/06 03:09:23;;;;;;;;;;;;;;;;;;;;;
2021/06/06 03:12:29;;;;;;;;;;;;;;;;;;;;;
2021/06/06 03:15:25;;;;;;;;;;;;;;;;;;;;;
2021/06/06 03:18:15;;;;;;;;;;;;;;;;;;;;;
2021/06/06 03:21:12;;;;;;;;;;;;;;;;;;;;;
2021/06/06 03:24:25;;;;;;;1.08;0.63;;;;;;;13.95;50.35;92847.53;6249774;22;20069;-92
2021/06/06 03:27:19;;;;;;;1.40;0.60;;;;;;;13.98;50.38;92846.16;6275940;22;20106;-92
2021/06/06 03:30:18;;;;;;;1.38;0.60;;;;;;;14.09;50.51;92851.97;6223857;22;20347;-93
2021/06/06 03:33:31;;;;;;;0.55;0.55;;;;;;;13.95;50.21;92844.13;6252545;22;20498;-93
2021/06/06 03:36:30;;;;;;;;;;;;;;;;;;;;;
2021/06/06 03:39:46;;;;;;;;;;;;;;;;;;;;;
2021/06/06 03:42:45;;;;;;;1.15;0.70;;;;;;;14.08;49.93;92842.53;6248364;22;20073;-91
2021/06/06 03:45:15;;;;;;;;;;;;;;;14.09;50.14;92844.06;6224916;22;20016;-92
2021/06/06 03:48:29;;;;;;;1.35;0.70;;;;;;;14.07;49.95;92838.31;6229238;22;19910;-93
2021/06/06 03:51:10;;;;;;;0.40;0.40;;;;;;;14.19;49.66;92843.09;6225223;22;20397;-94
2021/06/06 03:54:02;;;;;;;1.20;0.90;;;;;;;14.09;49.81;92838.81;6221756;22;20018;-92
2021/06/06 03:56:57;;;;;;;0.50;0.50;;;;;;;14.11;49.75;92841.91;6234671;22;20054;-92
2021/06/06 04:00:14;;;;;;;0.90;0.60;;;;;;;14.15;49.46;92827.09;6227169;22;20049;-91
2021/06/06 04:02:47;;;;;;;0.65;0.47;;;;;;;14.14;49.70;92836.84;6231238;22;20031;-92
2021/06/06 04:05:38;;;;;;;0.55;0.50;;;;;;;14.11;49.66;92820.88;6250851;22;20069;-91
2021/06/06 04:08:15;;;;;;;0.53;0.50;;;;;;;14.12;49.97;92827.69;6227232;22;20086;-93
2021/06/06 04:11:08;;;;;;;;;;;;;;;;;;;;;
2021/06/06 04:13:58;;;;;;;;;;;;;;;;;;;;;
2021/06/06 04:19:37;;;;;;;0.80;0.60;;;;;;;13.95;50.59;92829.09;6181329;22;20008;-92
2021/06/06 04:22:46;;;;;;;1.17;0.75;;;;;;;14.11;50.49;92841.91;6228010;22;20043;-93
2021/06/06 04:25:37;;;;;;;0.88;0.60;;;;;;;14.18;49.79;92852.03;6208007;22;20107;-92
2021/06/06 04:28:26;;;;;;;;;;;;;;;;;;;;;
2021/06/06 04:34:27;;;;;;;1.08;0.60;;;;;;;14.20;50.35;92848.03;6201088;22;20023;-92
2021/06/06 04:37:00;;;;;;;0.75;0.60;;;;;;;14.13;50.48;92831.88;6230926;22;20008;-93
2021/06/06 04:47:15;;;;;;;1.08;0.60;;;;;;;14.22;51.34;92829.31;6251046;22;20038;-92
2021/06/06 04:49:54;;;;;;;0.55;0.50;;;;;;;14.27;50.25;92832.59;6252454;22;20094;-92
2021/06/06 04:53:01;;;;;;;;;;;;;;;;;;;;;
2021/06/06 04:56:00;;;;;;;1.65;0.60;;;;;;;14.42;50.81;92846.47;6277226;22;20107;-91
2021/06/06 05:02:01;;;;;;;3.53;0.80;;;;;;;14.42;51.33;92831.44;6247994;22;20008;-92
2021/06/06 05:07:46;;;;;;;0.45;0.40;;;;;;;14.52;51.52;92835.69;6266635;22;20529;-91
2021/06/06 05:11:03;;;;;;;1.25;0.52;;;;;;;14.56;51.37;92837.44;6225090;22;20066;-92
2021/06/06 05:13:50;;;;;;;1.45;0.68;;;;;;;14.68;51.34;92841.38;6276531;22;20079;-91
2021/06/06 05:16:36;;;;;;;;;;;;;;;;;;;;;
2021/06/06 05:19:09;;;;;;;0.98;0.80;;;;;;;14.84;51.61;92853.09;6249105;22;20043;-92
2021/06/06 05:22:04;;;;;;;2.50;0.57;;;;;;;14.82;51.91;92838.66;6187736;22;20019;-92
2021/06/06 05:24:52;;;;;;;0.60;0.47;;;;;;;14.89;51.34;92833.75;6275595;22;20094;-92
2021/06/06 05:27:34;;;;;;;1.20;0.70;;;;;;;14.97;50.71;92835.63;6176994;22;20012;-91
2021/06/06 05:30:26;;;;;;;;;;;;;;;;;;;;;
2021/06/06 05:33:06;;;;;;;0.75;0.57;;;;;;;15.23;57.86;92838.34;6248667;22;20020;-93
2021/06/06 05:39:19;;;;;;;4.15;1.25;;;;;;;15.40;61.29;92867.41;6249384;22;20374;-92
2021/06/06 05:42:07;;;;;;;;;;;;;;;;;;;;;
2021/06/06 05:44:45;;;;;;;;;;;;;;;;;;;;;
2021/06/06 05:47:17;;;;;;;2.30;1.20;;;;;;;18.09;53.83;92865.34;6248737;22;20442;-92
2021/06/06 05:50:17;;;;;;;3.72;1.70;;;;;;;21.51;43.67;92857.75;6249167;22;20050;-91
2021/06/06 05:53:07;;;;;;;4.70;1.27;;;;;;;22.13;42.98;92858.72;6225478;22;20011;-94
2021/06/06 05:56:08;;;;;;;;;;;;;;;;;;;;;
2021/06/06 05:58:55;;;;;;;4.60;1.25;;;;;;;25.42;35.42;92856.03;6254789;22;20073;-92
2021/06/06 06:01:34;;;;;;;1.38;1.00;;;;;;;26.27;33.42;92850.50;6225178;22;20012;-92
2021/06/06 06:04:15;;;;;;;1.75;1.10;;;;;;;27.74;29.85;92850.13;6224160;22;20022;-93
2021/06/06 06:07:04;;;;;;;1.77;1.20;;;;;;;28.35;29.70;92856.22;6252664;22;20098;-94
2021/06/06 06:09:54;;;;;;;2.08;1.20;;;;;;;25.90;34.74;92854.16;6225895;22;20012;-93
2021/06/06 06:12:49;;;;;;;2.53;1.10;;;;;;;24.56;36.87;92853.25;6252128;22;20095;-94
2021/06/06 06:15:30;;;;;;;4.38;1.20;;;;;;;25.51;36.03;92872.56;6277407;22;20074;-93
2021/06/06 06:18:58;;;;;;;1.73;1.30;;;;;;;25.77;34.43;92853.63;6225112;22;20023;-91
2021/06/06 06:22:05;;;;;;;;;;;;;;;;;;;;;
2021/06/06 06:27:55;;;;;;;2.47;1.20;;;;;;;25.57;34.96;92856.94;6266642;22;20099;-92
2021/06/06 06:31:23;;;;;;;;;;;;;;;;;;;;;
2021/06/06 06:34:22;;;;;;;2.47;1.00;;;;;;;25.22;34.01;92856.28;6249076;22;20095;-93
2021/06/06 06:37:31;;;;;;;;;;;;;;;;;;;;;
2021/06/06 06:40:18;;;;;;;;;;;;;;;;;;;;;
2021/06/06 06:46:35;;;;;;;1.65;0.88;;;;;;;20.37;47.20;92858.97;6267303;22;20278;-92
2021/06/06 06:49:27;;;;;;;;;;;;;;;;;;;;;
2021/06/06 06:52:19;;;;;;;1.40;0.95;;;;;;;18.40;53.65;92858.09;6275810;22;20090;-93
2021/06/06 06:55:10;;;;;;;;;;;;;;;;;;;;;
2021/06/06 06:58:00;;;;;;;1.90;1.08;;;;;;;18.02;51.91;92851.84;6252511;22;20090;-92
2021/06/06 07:00:46;;;;;;;4.60;1.08;;;;;;;18.07;51.60;92859.59;6249471;22;20107;-93
2021/06/06 07:03:28;;;;;;;3.10;1.00;;;;;;;17.04;54.00;92869.59;6224545;22;20431;-91
2021/06/06 07:06:19;;;;;;;;;;;;;;;;;;;;;
2021/06/06 07:09:00;;;;;;;;;;;;;;;;;;;;;
2021/06/06 07:11:37;;;;;;;2.72;1.10;;;;;;;17.79;55.43;92859.28;6249909;22;20188;-93
2021/06/06 07:14:28;;;;;;;1.70;1.05;;;;;;;17.74;56.78;92850.75;6254172;22;20102;-92
2021/06/06 07:17:17;;;;;;;;;;;;;;;;;;;;;
2021/06/06 07:20:06;;;;;;;2.03;1.20;;;;;;;18.05;57.44;92853.81;6277182;22;20094;-94
2021/06/06 07:22:48;;;;;;;2.03;1.20;;;;;;;18.13;56.20;92870.00;6251925;22;20087;-93
2021/06/06 07:25:16;;;;;;;4.07;1.10;;;;;;;17.88;57.19;92861.91;6224740;22;20020;-93
2021/06/06 07:27:48;;;;;;;3.15;1.10;;;;;;;18.15;56.87;92865.13;6224550;22;20012;-93
2021/06/06 07:31:00;;;;;;;1.95;1.08;;;;;;;18.49;55.05;92861.44;6250309;22;20027;-92
2021/06/06 07:33:48;;;;;;;;;;;;;;;;;;;;;
2021/06/06 07:36:27;;;;;;;;;;;;;;;;;;;;;
2021/06/06 07:39:06;;;;;;;1.95;1.08;;;;;;;19.27;55.08;92846.59;6276324;22;20011;-94
2021/06/06 07:41:34;;;;;;;2.80;1.15;;;;;;;18.46;55.97;92859.41;6250717;22;20401;-94
2021/06/06 07:44:15;;;;;;;3.78;1.25;;;;;;;18.37;56.86;92840.94;6225444;22;20327;-94
2021/06/06 07:46:52;;;;;;;2.38;0.95;;;;;;;18.57;55.87;92842.00;6250228;22;20011;-93
2021/06/06 07:49:21;;;;;;;6.32;1.30;;;;;;;18.82;54.87;92853.47;6225785;22;20019;-94
2021/06/06 07:51:59;;;;;;;5.88;1.30;;;;;;;18.05;55.51;92840.59;6226147;22;20374;-94
2021/06/06 07:54:34;;;;;;;2.53;1.02;;;;;;;17.85;57.09;92833.41;6250944;22;20031;-93
2021/06/06 07:57:06;;;;;;;1.55;1.00;;;;;;;17.97;56.22;92838.78;6225372;22;20020;-94
2021/06/06 07:59:33;;;;;;;1.10;0.85;;;;;;;18.22;55.81;92820.38;6278478;22;20015;-95
2021/06/06 08:02:04;;;;;;;1.83;1.02;;;;;;;18.43;55.78;92826.41;6249211;22;20038;-96
2021/06/06 08:04:36;;;;;;;2.78;1.10;;;;;;;17.91;56.30;92826.06;6250666;22;20037;-93
2021/06/06 08:07:06;;;;;;;2.05;1.10;;;;;;;17.98;55.98;92832.38;6276732;22;20395;-92
2021/06/06 08:09:32;;;;;;;3.88;1.80;;;;;;;17.75;55.73;92831.13;6249139;22;20012;-91
2021/06/06 08:11:58;;;;;;;2.53;0.90;;;;;;;17.67;53.93;92833.53;6224724;22;20019;-93
2021/06/06 08:14:31;;;;;;;4.20;0.90;;;;;;;18.18;54.93;92830.06;6249653;22;20015;-93
2021/06/06 08:16:57;;;;;;;2.45;1.10;;;;;;;18.29;54.00;92815.31;6224153;22;20012;-92
2021/06/06 08:19:26;;;;;;;3.30;1.10;;;;;;;18.49;53.54;92824.34;6250692;22;20057;-93
2021/06/06 08:21:52;;;;;;;1.60;1.10;;;;;;;18.78;52.60;92826.09;6224563;22;20016;-92
2021/06/06 08:24:20;;;;;;;1.73;1.10;;;;;;;18.16;54.04;92824.31;6249218;22;20397;-93
2021/06/06 08:27:00;;;;;;;2.65;1.13;;;;;;;18.39;52.14;92814.91;6225938;22;20012;-92
2021/06/06 08:29:42;;;;;;;;;;;;;;;;;;;;;
2021/06/06 08:32:17;;;;;;;1.63;0.90;;;;;;;18.52;51.67;92821.78;6226341;22;20027;-93
2021/06/06 08:34:58;;;;;;;;;;;;;;;;;;;;;
2021/06/06 08:37:28;;;;;;;2.05;0.90;;;;;;;18.69;49.42;92823.50;6227966;22;20026;-93
2021/06/06 08:40:03;;;;;;;1.65;0.90;;;;;;;18.83;49.53;92823.22;6253472;22;20008;-94
2021/06/06 08:42:32;;;;;;;1.30;1.00;;;;;;;18.64;49.93;92815.75;6225197;22;20020;-93
2021/06/06 08:45:09;;;;;;;2.67;1.05;;;;;;;19.04;49.69;92828.44;6224469;22;20027;-93
2021/06/06 08:47:53;;;;;;;1.05;0.88;;;;;;;19.40;49.13;92823.50;6250367;22;20008;-93
2021/06/06 08:50:46;;;;;;;1.20;0.90;;;;;;;19.23;48.92;92825.28;6277859;22;20012;-93
2021/06/06 08:53:26;;;;;;;1.45;0.85;;;;;;;19.30;49.71;92819.41;6214654;22;20339;-92
2021/06/06 08:56:04;;;;;;;1.17;0.88;;;;;;;18.93;49.77;92817.47;6225555;22;20023;-93
2021/06/06 08:58:52;;;;;;;1.95;0.95;;;;;;;19.29;48.38;92823.91;6252107;22;20078;-92
2021/06/06 09:01:36;;;;;;;2.95;1.08;;;;;;;19.26;49.04;92813.97;6249642;22;20030;-92
2021/06/06 09:04:21;;;;;;;2.03;0.90;;;;;;;19.54;47.49;92813.28;6225104;22;20069;-92
2021/06/06 09:06:55;;;;;;;2.03;0.80;;;;;;;20.22;46.74;92825.94;6248053;22;20030;-91
2021/06/06 09:09:43;;;;;;;1.92;0.98;;;;;;;20.42;45.93;92829.47;6225235;22;20015;-92
2021/06/06 09:12:25;;;;;;;1.88;0.90;;;;;;;19.70;46.83;92822.19;6249459;22;20004;-92
2021/06/06 09:15:00;;;;;;;1.60;0.95;;;;;;;20.16;46.35;92821.94;6224392;22;20158;-92
2021/06/06 09:17:47;;;;;;;3.50;1.00;;;;;;;20.54;45.10;92816.16;6276015;22;20008;-92
2021/06/06 09:20:29;;;;;;;1.08;0.77;;;;;;;20.89;43.44;92820.09;6226271;22;20376;-92
2021/06/06 09:23:16;;;;;;;;;;;;;;;20.65;45.49;92821.78;6253757;22;20118;-93
2021/06/06 09:25:58;;;;;;;5.70;1.00;;;;;;;20.76;44.95;92819.38;6224639;22;19907;-93
2021/06/06 09:28:34;;;;;;;1.35;0.80;;;;;;;20.76;43.51;92806.06;6250380;22;20083;-91
2021/06/06 09:31:20;;;;;;;2.75;0.70;;;;;;;20.23;44.93;92824.03;6249518;22;20023;-93
2021/06/06 09:33:54;;;;;;;1.73;0.90;;;;;;;20.78;43.52;92819.81;6225599;22;20216;-94
2021/06/06 09:36:55;;;;;;;2.05;0.80;;;;;;;20.76;44.29;92811.41;6250591;22;20320;-94
2021/06/06 09:43:05;;;;;;;1.42;0.90;;;;;;;20.86;43.44;92816.22;6252308;22;20113;-92
2021/06/06 09:45:48;;;;;;;;;;;;;;;;;;;;;
2021/06/06 09:48:39;;;;;;;;;;;;;;;;;;;;;
2021/06/06 09:51:32;;;;;;;1.60;0.90;;;;;;;21.03;42.17;92799.16;6247826;22;20022;-93
2021/06/06 09:54:49;;;;;;;;;;;;;;;;;;;;;
2021/06/06 09:57:50;;;;;;;5.72;0.90;;;;;;;21.02;43.91;92807.50;6195095;22;20015;-95
2021/06/06 10:00:55;;;;;;;1.92;0.90;;;;;;;21.38;43.46;92806.44;6248734;22;20091;-95
2021/06/06 10:03:50;;;;;;;0.85;0.70;;;;;;;21.03;42.89;92806.34;6228323;22;20446;-93
2021/06/06 10:06:40;;;;;;;2.20;0.70;;;;;;;21.37;43.22;92789.69;6226862;22;20026;-95
2021/06/06 10:09:18;;;;;;;1.17;0.82;;;;;;;21.53;41.69;92803.00;6223961;22;20075;-92
2021/06/06 10:12:21;;;;;;;2.35;0.95;;;;;;;21.14;42.72;92804.72;6223157;22;20018;-93
2021/06/06 10:15:18;;;;;;;;;;;;;;;;;;;;;
2021/06/06 10:18:05;;;;;;;2.35;0.80;;;;;;;21.50;43.07;92794.94;6246652;22;20098;-94
2021/06/06 10:20:57;;;;;;;0.80;0.68;;;;;;;21.71;42.08;92803.41;6224822;22;20106;-94
2021/06/06 10:24:08;;;;;;;;;;;;;;;;;;;;;
2021/06/06 10:27:23;;;;;;;2.95;0.90;;;;;;;21.71;40.08;92794.66;6274878;22;20090;-93
2021/06/06 10:30:17;;;;;;;3.80;0.80;;;;;;;21.53;38.84;92796.94;6246275;22;20091;-93
2021/06/06 10:32:57;;;;;;;0.80;0.70;;;;;;;21.96;40.13;92801.28;6222378;22;20027;-92
2021/06/06 10:35:30;;;;;;;1.30;1.02;;;;;;;21.54;40.63;92788.56;6223138;22;20012;-94
2021/06/06 10:38:20;;;;;;;;;;;;;;;;;;;;;
2021/06/06 10:40:54;;;;;;;1.42;0.80;;;;;;;21.54;38.52;92783.25;6224527;22;20047;-94
2021/06/06 10:43:50;;;;;;;;;;;;;;;;;;;;;
2021/06/06 10:46:39;;;;;;;1.65;1.00;;;;;;;21.70;40.22;92780.53;6247628;22;20008;-93
2021/06/06 10:49:08;;;;;;;1.80;0.82;;;;;;;21.56;39.08;92788.22;6220962;22;20011;-95
2021/06/06 10:51:51;;;;;;;1.02;0.73;;;;;;;21.27;38.80;92782.22;6222512;22;20047;-95
2021/06/06 10:59:22;;;;;;;1.58;0.90;;;;;;;22.02;38.43;92777.75;6274602;22;20090;-94
2021/06/06 11:01:53;;;;;;;1.13;0.80;;;;;;;22.18;39.58;92778.50;6232564;22;20027;-94
2021/06/06 11:05:01;;;;;;;1.88;0.85;;;;;;;21.97;36.04;92764.72;6194588;23;20019;-94
2021/06/06 11:07:53;;;;;;;1.13;0.82;;;;;;;22.05;35.27;92779.75;6192018;23;20489;-94
2021/06/06 11:10:31;;;;;;;1.42;1.00;;;;;;;22.31;38.55;92773.03;6219681;23;20015;-95
2021/06/06 11:16:36;;;;;;;1.85;1.08;;;;;;;22.57;37.03;92759.81;6242606;23;20019;-94
2021/06/06 11:31:55;;;;;;;;;;;;;;;;;;;;;
2021/06/06 11:35:28;;;;;;;2.00;1.05;;;;;;;22.78;36.38;92742.63;6003903;23;20499;-93
2021/06/06 11:39:30;;;;;;;;;;;;;;;;;;;;;
2021/06/06 11:42:42;;;;;;;;;;;;;;;;;;;;;
2021/06/06 11:46:41;;;;;;;3.92;1.20;;;;;;;22.43;38.02;92727.56;5979298;23;20036;-94
2021/06/06 11:50:28;;;;;;;;;;;;;;;;;;;;;
2021/06/06 12:05:47;;;;;;;;;;;;;;;;;;;;;
2021/06/06 12:09:06;;;;;;;;;;;;;;;;;;;;;
2021/06/06 12:12:24;;;;;;;;;;;;;;;;;;;;;
2021/06/06 12:15:22;;;;;;;1.52;0.90;;;;;;;22.87;35.87;92703.13;6216737;23;20016;-92
2021/06/06 12:18:43;;;;;;;3.20;1.38;;;;;;;22.86;35.87;92694.34;6219917;23;20091;-91
2021/06/06 12:21:48;;;;;;;0.98;0.80;;;;;;;22.48;36.54;92697.91;6195677;23;20058;-93
2021/06/06 12:24:30;;;;;;;2.88;0.90;;;;;;;22.83;37.36;92688.94;6195276;23;20012;-92
2021/06/06 12:27:51;;;;;;;;;;;;;;;;;;;;;
2021/06/06 12:30:37;;;;;;;2.58;0.93;;;;;;;22.88;36.81;92694.00;6218030;23;20020;-94
2021/06/06 12:33:12;;;;;;;2.58;0.80;;;;;;;22.49;36.32;92688.78;6195782;23;20082;-90
2021/06/06 12:36:09;;;;;;;;;;;;;;;;;;;;;
2021/06/06 12:39:04;;;;;;;;;;;;;;;;;;;;;
2021/06/06 12:42:26;;;;;;;;;;;;;;;;;;;;;
2021/06/06 12:45:24;;;;;;;2.28;1.15;;;;;;;23.93;35.69;92682.84;6217755;23;20012;-93
2021/06/06 12:48:31;;;;;;;1.13;0.90;;;;;;;23.27;35.77;92683.91;6194894;23;20297;-94
2021/06/06 12:51:49;;;;;;;;;;;;;;;;;;;;;
2021/06/06 12:54:53;;;;;;;2.20;1.00;;;;;;;23.85;38.19;92669.41;6208553;23;20386;-92
2021/06/06 12:57:27;;;;;;;7.60;1.02;;;;;;;24.05;36.75;92672.69;6215850;23;20023;-90
2021/06/06 13:04:26;;;;;;;;;;;;;;;;;;;;;
2021/06/06 13:08:22;;;;;;;1.83;1.00;;;;;;;24.41;35.07;92669.59;6181441;23;20070;-94
2021/06/06 13:19:29;;;;;;;;;;;;;;;;;;;;;
2021/06/06 13:26:08;;;;;;;;;;;;;;;;;;;;;
2021/06/06 13:29:41;;;;;;;2.42;1.10;;;;;;;22.66;40.10;92677.63;6097085;23;20391;-94
2021/06/06 13:37:02;;;;;;;;;;;;;;;;;;;;;
2021/06/06 13:40:36;;;;;;;3.53;1.45;;;;;;;22.44;41.84;92671.16;6097385;23;20109;-94
2021/06/06 13:44:07;;;;;;;;;;;;;;;;;;;;;
2021/06/06 13:47:40;;;;;;;3.33;1.30;;;;;;;22.26;40.61;92670.09;6092219;23;20030;-94
2021/06/06 13:51:14;;;;;;;;;;;;;;;;;;;;;
2021/06/06 13:54:44;;;;;;;1.60;1.10;;;;;;;22.55;39.83;92665.25;6246886;23;20302;-94
2021/06/06 14:06:11;;;;;;;;;;;;;;;;;;;;;
2021/06/06 14:09:44;;;;;;;;;;;;;;;;;;;;;
2021/06/06 14:28:15;;;;;;;2.03;1.27;;;;;;;23.00;39.50;92648.44;6034877;23;20063;-91
2021/06/06 14:30:59;;;;;;;2.63;1.20;;;;;;;22.95;40.60;92640.72;6011055;23;20059;-92
2021/06/06 14:33:44;;;;;;;;;;;;;;;;;;;;;
2021/06/06 14:36:47;;;;;;;3.70;1.55;;;;;;;22.85;40.68;92633.31;6136345;23;20064;-94
2021/06/06 14:39:16;;;;;;;4.05;1.40;;;;;;;22.74;41.36;92630.50;6191061;23;20012;-93
2021/06/06 14:41:49;;;;;;;4.45;1.52;;;;;;;23.38;41.15;92635.97;6192306;23;20038;-93
2021/06/06 14:44:30;;;;;;;1.60;1.17;;;;;;;23.56;40.23;92633.53;6193339;23;20604;-92
2021/06/06 14:50:19;;;;;;;5.10;1.40;;;;;;;22.79;41.33;92616.09;6233845;23;20095;-94
2021/06/06 14:53:18;;;;;;;;;;;;;;;;;;;;;
2021/06/06 14:56:08;;;;;;;3.78;1.05;;;;;;;22.54;41.78;92624.47;6218167;23;20040;-92
2021/06/06 14:58:42;;;;;;;2.92;1.27;;;;;;;22.52;41.20;92626.72;6195468;23;20328;-93
2021/06/06 15:01:39;;;;;;;2.65;1.25;;;;;;;23.02;41.22;92622.16;6193966;23;20020;-93
2021/06/06 15:04:10;;;;;;;2.53;1.20;;;;;;;23.25;40.86;92619.41;6202610;23;20027;-93
2021/06/06 15:06:53;;;;;;;2.70;1.00;;;;;;;23.46;40.09;92626.94;6170188;23;20020;-93
2021/06/06 15:09:24;;;;;;;1.77;1.10;;;;;;;23.06;41.85;92619.53;6192399;23;20015;-93
2021/06/06 15:12:03;;;;;;;1.92;1.00;;;;;;;23.38;41.46;92619.19;6219694;23;20019;-94
2021/06/06 15:14:34;;;;;;;1.92;1.17;;;;;;;23.27;40.72;92624.38;6193950;23;20090;-94
2021/06/06 15:17:07;;;;;;;2.50;1.02;;;;;;;23.60;40.65;92621.00;6195756;23;20027;-94
2021/06/06 15:19:58;;;;;;;;;;;;;;;;;;;;;
2021/06/06 15:23:03;;;;;;;;;;;;;;;;;;;;;
2021/06/06 15:26:04;;;;;;;3.55;1.33;;;;;;;23.99;40.32;92606.53;6218206;23;20408;-94
2021/06/06 15:29:11;;;;;;;2.22;1.20;;;;;;;24.86;38.59;92598.88;6219438;23;20485;-95
2021/06/06 15:32:28;;;;;;;;;;;;;;;;;;;;;
2021/06/06 15:35:31;;;;;;;;;;;;;;;;;;;;;
2021/06/06 15:38:14;;;;;;;2.70;1.48;;;;;;;23.67;39.14;92609.63;6218250;23;20459;-94
2021/06/06 15:41:11;;;;;;;3.10;1.20;;;;;;;24.26;38.42;92605.25;6197841;23;20012;-94
2021/06/06 15:44:01;;;;;;;1.33;0.95;;;;;;;25.03;37.08;92597.44;6214779;23;20087;-94
2021/06/06 15:46:53;;;;;;;1.65;1.20;;;;;;;25.12;37.47;92592.50;6219591;23;20111;-94
2021/06/06 15:49:34;;;;;;;3.88;1.30;;;;;;;25.03;37.25;92585.97;6194877;23;20020;-94
2021/06/06 15:52:23;;;;;;;1.50;1.10;;;;;;;24.42;37.50;92588.19;6209194;23;20083;-94
2021/06/06 15:55:10;;;;;;;2.28;1.30;;;;;;;24.26;38.38;92586.53;6197244;23;20012;-92
2021/06/06 15:57:44;;;;;;;1.85;1.15;;;;;;;24.09;38.03;92592.50;6193548;23;20316;-92
2021/06/06 16:00:25;;;;;;;;;;;;;;;;;;;;;
2021/06/06 16:03:43;;;;;;;;;;;;;;;;;;;;;
2021/06/06 16:06:38;;;;;;;;;;;;;;;;;;;;;
2021/06/06 16:09:30;;;;;;;2.75;1.38;;;;;;;24.37;39.49;92592.00;6249435;22;20058;-93
2021/06/06 16:12:03;;;;;;;2.60;1.30;;;;;;;24.36;38.70;92584.31;6229262;22;20012;-94
2021/06/06 16:14:37;;;;;;;2.78;1.50;;;;;;;24.02;38.74;92576.38;6177926;22;20439;-93
2021/06/06 16:17:37;;;;;;;4.60;1.38;;;;;;;23.82;39.56;92578.47;6200543;22;20018;-92
2021/06/06 16:20:32;;;;;;;7.22;1.45;;;;;;;23.75;40.00;92575.75;6224836;22;20006;-93
2021/06/06 16:23:31;;;;;;;2.13;1.30;;;;;;;22.98;40.75;92577.84;6200244;22;19999;-94
2021/06/06 16:26:27;;;;;;;;;;;;;;;;;;;;;
2021/06/06 16:29:20;;;;;;;59.33;31.25;;;;;;;23.29;41.57;92574.06;6247396;22;20106;-94
2021/06/06 16:32:10;;;;;;;71.25;42.53;;;;;;;23.53;41.14;92574.69;6223205;22;20050;-93
2021/06/06 16:34:49;;;;;;;264.90;153.60;;;;;;;23.74;40.26;92571.50;6229531;22;20615;-93
2021/06/06 16:37:28;;;;;;;;;;;;;;;;;;;;;
2021/06/06 16:40:19;;;;;;;;;;;;;;;;;;;;;
2021/06/06 16:43:43;;;;;;;7.95;6.13;;;;;;;24.14;39.52;92578.81;6258617;22;20083;-93
2021/06/06 16:46:36;;;;;;;6.07;2.17;;;;;;;24.17;39.34;92564.69;6203653;22;20031;-93
2021/06/06 16:49:17;;;;;;;4.88;1.60;;;;;;;24.21;38.96;92572.75;6202219;22;20454;-94
2021/06/06 16:51:57;;;;;;;55.00;17.58;;;;;;;24.30;39.55;92583.91;6202529;22;20050;-93
2021/06/06 16:54:28;;;;;;;21.80;16.42;;;;;;;24.37;38.89;92591.22;6198952;22;20015;-94
2021/06/06 16:57:36;;;;;;;5.25;1.50;;;;;;;24.40;38.18;92579.78;6249932;22;20095;-93
2021/06/06 17:00:14;;;;;;;2.58;1.17;;;;;;;24.53;38.26;92594.44;6222796;22;20098;-93
2021/06/06 17:03:00;;;;;;;;;;;;;;;;;;;;;
2021/06/06 17:05:46;;;;;;;1.60;1.15;;;;;;;24.50;38.56;92587.91;6247719;22;20054;-93
2021/06/06 17:08:20;;;;;;;2.90;1.20;;;;;;;24.53;39.22;92594.44;6223880;22;20098;-94
2021/06/06 17:10:59;;;;;;;2.53;1.40;;;;;;;24.76;39.25;92601.47;6249441;22;20502;-93
2021/06/06 17:13:41;;;;;;;2.78;1.30;;;;;;;24.62;40.33;92596.78;6249890;22;20534;-94
2021/06/06 17:16:18;;;;;;;;;;;;;;;24.36;41.22;92600.38;6228244;22;20091;-94
2021/06/06 17:19:13;;;;;;;4.78;1.30;;;;;;;24.23;41.80;92606.00;6221813;22;20002;-93
2021/06/06 17:21:56;;;;;;;2.72;1.20;;;;;;;24.01;42.80;92617.63;6216940;22;20066;-93
2021/06/06 17:24:32;;;;;;;4.43;1.20;;;;;;;23.76;43.15;92607.44;6222408;22;20019;-94
2021/06/06 17:27:09;;;;;;;2.13;1.25;;;;;;;23.56;43.82;92606.81;6222173;22;20516;-94
2021/06/06 17:30:03;;;;;;;5.38;1.38;;;;;;;23.46;43.67;92620.81;6253476;22;20527;-94
2021/06/06 17:32:41;;;;;;;2.58;1.30;;;;;;;23.30;43.87;92618.31;6224646;22;20022;-92
2021/06/06 17:35:41;;;;;;;;;;;;;;;;;;;;;
2021/06/06 17:38:38;;;;;;;2.63;1.40;;;;;;;23.13;44.69;92610.88;6230726;22;20023;-93
2021/06/06 17:41:32;;;;;;;;;;;;;;;;;;;;;
2021/06/06 17:44:33;;;;;;;3.15;1.40;;;;;;;22.92;47.08;92620.09;6258817;22;20042;-93
2021/06/06 18:09:00;;;;;;;;;;;;;;;;;;;;;